Time;durP1;ratioP1;P1;durP2;ratioP2;P2;SDS_P1;SDS_P2;PMS_P1;PMS_P2;Temp;Humidity;BMP_temperature;BMP_pressure;BME280_temperature;BME280_humidity;BME280_pressure;Samples;Min_cycle;Max_cycle;Signal;HPM_P1;HPM_P2
2023/08/11 00:00:42;;;;;;;5.27;4.77;;;;;;;16.73;69.00;98424.63;5050320;28;20501;-76
2023/08/11 00:03:09;;;;;;;5.13;4.27;;;;;;;16.72;68.88;98419.41;5050784;28;20536;-76
2023/08/11 00:05:36;;;;;;;4.70;4.23;;;;;;;16.51;69.12;98419.88;5049282;28;20463;-76
2023/08/11 00:08:05;;;;;;;4.80;4.40;;;;;;;16.54;68.79;98422.16;5050339;28;20497;-76
2023/08/11 00:10:32;;;;;;;5.53;5.13;;;;;;;16.50;69.11;98416.31;5050354;28;20459;-76
2023/08/11 00:12:59;;;;;;;5.87;5.30;;;;;;;16.52;69.38;98414.19;5050106;28;20461;-76
2023/08/11 00:15:28;;;;;;;4.93;4.53;;;;;;;16.49;69.41;98417.38;5049872;28;20848;-76
2023/08/11 00:17:58;;;;;;;4.80;4.30;;;;;;;16.54;68.73;98406.59;5050390;28;20440;-76
2023/08/11 00:20:25;;;;;;;5.27;4.80;;;;;;;16.58;69.17;98423.34;5050375;28;20501;-76
2023/08/11 00:22:52;;;;;;;4.40;4.10;;;;;;;16.43;69.53;98421.88;5050456;28;20483;-76
2023/08/11 00:25:19;;;;;;;4.40;4.03;;;;;;;16.39;69.96;98422.56;5049691;28;20529;-76
2023/08/11 00:27:47;;;;;;;4.30;3.90;;;;;;;16.41;70.01;98423.16;5049573;28;20541;-76
2023/08/11 00:30:14;;;;;;;5.00;3.73;;;;;;;16.33;70.39;98426.19;5050368;28;20820;-75
2023/08/11 00:32:42;;;;;;;4.57;4.23;;;;;;;16.40;70.43;98421.50;5050016;28;20463;-76
2023/08/11 00:35:09;;;;;;;4.73;4.33;;;;;;;16.38;70.46;98426.34;5050021;28;20530;-76
2023/08/11 00:37:36;;;;;;;4.70;4.30;;;;;;;16.15;71.46;98431.69;5050005;28;20823;-76
2023/08/11 00:40:03;;;;;;;6.37;4.80;;;;;;;16.33;70.75;98431.66;5049773;28;20591;-75
2023/08/11 00:42:30;;;;;;;4.83;4.43;;;;;;;16.13;71.80;98430.03;5049723;28;20447;-75
2023/08/11 00:44:58;;;;;;;5.00;4.60;;;;;;;15.97;72.50;98430.63;5049979;28;20485;-76
2023/08/11 00:47:25;;;;;;;4.70;4.30;;;;;;;15.93;72.72;98436.75;5049642;28;20495;-76
2023/08/11 00:49:53;;;;;;;4.87;4.47;;;;;;;15.91;72.80;98434.28;5049591;28;20957;-76
2023/08/11 00:52:20;;;;;;;4.67;4.37;;;;;;;15.82;73.23;98427.44;5049551;28;20962;-76
2023/08/11 00:54:47;;;;;;;4.70;4.40;;;;;;;15.76;73.82;98425.59;5049420;28;20471;-76
2023/08/11 00:57:14;;;;;;;4.57;4.17;;;;;;;15.78;73.74;98428.94;5049178;28;20552;-76
2023/08/11 00:59:41;;;;;;;4.63;4.10;;;;;;;15.75;74.10;98429.41;5049925;28;20482;-76
2023/08/11 01:02:10;;;;;;;4.57;4.17;;;;;;;15.68;74.62;98434.06;5049209;28;20776;-76
2023/08/11 01:04:36;;;;;;;5.23;4.83;;;;;;;15.63;74.76;98425.72;5049460;28;20812;-76
2023/08/11 01:07:10;;;;;;;5.13;4.63;;;;;;;15.54;75.19;98422.44;5049767;28;20486;-75
2023/08/11 01:09:43;;;;;;;5.30;4.80;;;;;;;15.48;75.88;98436.13;5049300;28;20457;-76
2023/08/11 01:12:16;;;;;;;4.93;4.37;;;;;;;15.33;76.60;98431.84;5049384;28;20447;-76
2023/08/11 01:14:48;;;;;;;5.90;4.90;;;;;;;15.48;76.15;98430.69;5049440;28;20459;-75
2023/08/11 01:17:16;;;;;;;5.33;4.93;;;;;;;15.32;76.89;98423.88;5049377;28;20467;-75
2023/08/11 01:19:43;;;;;;;5.63;5.10;;;;;;;15.28;77.10;98426.22;5049723;28;20493;-76
2023/08/11 01:22:15;;;;;;;5.97;5.47;;;;;;;15.26;77.38;98425.63;5049346;28;20512;-76
2023/08/11 01:24:44;;;;;;;8.10;4.87;;;;;;;15.24;77.58;98433.19;5049459;28;20446;-76
2023/08/11 01:27:11;;;;;;;5.33;4.73;;;;;;;15.17;77.86;98429.69;5048971;28;20577;-75
2023/08/11 01:29:38;;;;;;;5.47;5.00;;;;;;;15.15;77.98;98439.97;5049506;28;20515;-76
2023/08/11 01:32:05;;;;;;;5.73;5.17;;;;;;;15.14;78.08;98432.84;5049184;28;20530;-76
2023/08/11 01:34:32;;;;;;;5.63;5.23;;;;;;;14.95;78.96;98439.28;5052358;28;20462;-75
2023/08/11 01:37:00;;;;;;;6.03;5.53;;;;;;;14.92;79.13;98447.91;5049567;28;20575;-76
2023/08/11 01:39:27;;;;;;;5.87;5.37;;;;;;;14.91;79.27;98443.53;5048966;28;21018;-76
2023/08/11 01:41:55;;;;;;;6.17;5.57;;;;;;;14.97;78.93;98448.06;5049276;28;20691;-75
2023/08/11 01:44:22;;;;;;;5.90;5.50;;;;;;;14.81;79.37;98446.72;5049068;28;20538;-75
2023/08/11 01:46:52;;;;;;;5.47;5.07;;;;;;;14.85;79.39;98447.13;5048969;28;20516;-75
2023/08/11 01:49:19;;;;;;;6.10;5.60;;;;;;;14.57;79.70;98412.09;5048958;28;20451;-76
2023/08/11 01:51:46;;;;;;;5.80;5.30;;;;;;;14.56;81.12;98452.09;5049133;28;20435;-76
2023/08/11 01:54:13;;;;;;;5.63;5.20;;;;;;;14.49;81.52;98445.00;5049031;28;20443;-76
2023/08/11 01:56:40;;;;;;;6.10;5.57;;;;;;;14.57;81.03;98442.88;5048880;28;20466;-76
2023/08/11 01:59:14;;;;;;;5.83;5.20;;;;;;;14.50;81.79;98439.34;5049137;28;20453;-76
2023/08/11 02:01:41;;;;;;;5.40;5.00;;;;;;;14.45;81.78;98439.16;5048843;28;20445;-76
2023/08/11 02:04:08;;;;;;;5.90;5.40;;;;;;;14.40;82.15;98441.66;5048949;28;20437;-76
2023/08/11 02:06:36;;;;;;;6.10;5.60;;;;;;;14.46;81.96;98432.66;5048560;28;20489;-76
2023/08/11 02:09:04;;;;;;;5.40;4.90;;;;;;;14.33;82.34;98429.97;5049014;28;20482;-76
2023/08/11 02:11:31;;;;;;;5.60;5.10;;;;;;;14.28;82.66;98424.34;5049168;28;20462;-76
2023/08/11 02:13:58;;;;;;;6.00;5.50;;;;;;;14.24;82.94;98434.84;5048675;28;20476;-76
2023/08/11 02:16:26;;;;;;;6.83;6.17;;;;;;;14.20;83.24;98419.16;5048033;28;20535;-76
2023/08/11 02:18:53;;;;;;;7.23;5.97;;;;;;;14.19;83.60;98431.09;5049057;28;20492;-76
2023/08/11 02:21:20;;;;;;;6.00;5.50;;;;;;;14.22;83.40;98422.50;5048638;28;21251;-76
2023/08/11 02:23:46;;;;;;;6.97;6.47;;;;;;;14.17;83.64;98433.19;5048590;28;20541;-76
2023/08/11 02:26:14;;;;;;;7.30;6.70;;;;;;;14.16;83.48;98431.50;5048587;28;20509;-76
2023/08/11 02:28:41;;;;;;;7.20;6.60;;;;;;;14.15;83.52;98429.84;5048523;28;20453;-75
2023/08/11 02:31:08;;;;;;;6.40;5.90;;;;;;;14.13;83.84;98427.34;5052276;28;20538;-76
2023/08/11 02:33:36;;;;;;;7.13;6.53;;;;;;;14.22;83.68;98431.50;5051920;28;20452;-75
2023/08/11 02:36:04;;;;;;;7.20;6.70;;;;;;;14.20;83.64;98430.88;5052326;28;20468;-76
2023/08/11 02:38:30;;;;;;;6.53;6.03;;;;;;;14.33;83.17;98425.34;5052333;28;20560;-76
2023/08/11 02:40:57;;;;;;;7.17;6.47;;;;;;;14.41;82.86;98432.47;5052147;28;20487;-75
2023/08/11 02:43:24;;;;;;;6.90;6.30;;;;;;;14.51;82.32;98432.84;5051084;28;20892;-75
2023/08/11 02:45:51;;;;;;;7.13;6.30;;;;;;;14.51;82.11;98426.56;5050701;28;20548;-76
2023/08/11 02:48:17;;;;;;;7.93;6.40;;;;;;;14.52;82.15;98433.69;5052106;28;21051;-75
2023/08/11 02:50:45;;;;;;;7.10;6.50;;;;;;;14.48;82.18;98424.28;5052148;28;20869;-76
2023/08/11 02:53:12;;;;;;;7.03;6.33;;;;;;;14.47;82.15;98433.50;5052210;28;20445;-76
2023/08/11 02:55:39;;;;;;;7.83;7.03;;;;;;;14.48;82.36;98427.84;5051002;28;20527;-76
2023/08/11 02:58:06;;;;;;;8.00;7.20;;;;;;;14.44;82.35;98427.44;5051716;28;20493;-76
2023/08/11 03:00:34;;;;;;;7.47;6.70;;;;;;;14.57;81.98;98426.53;5052058;28;20435;-75
2023/08/11 03:03:01;;;;;;;7.20;6.60;;;;;;;14.65;81.80;98428.97;5051789;28;20448;-76
2023/08/11 03:05:28;;;;;;;7.53;6.93;;;;;;;14.58;81.86;98427.38;5051500;28;20601;-75
2023/08/11 03:07:56;;;;;;;7.23;6.20;;;;;;;14.55;82.04;98434.09;5051358;28;20485;-76
2023/08/11 03:10:23;;;;;;;7.63;6.93;;;;;;;14.55;81.94;98431.38;5051414;28;20443;-75
2023/08/11 03:12:50;;;;;;;7.53;6.83;;;;;;;14.55;82.00;98425.09;5051677;28;20446;-76
2023/08/11 03:15:18;;;;;;;6.97;6.40;;;;;;;14.41;82.59;98422.41;5051111;28;20502;-76
2023/08/11 03:17:45;;;;;;;8.20;7.50;;;;;;;14.37;82.83;98425.75;5051555;28;20858;-76
2023/08/11 03:20:12;;;;;;;8.10;7.40;;;;;;;14.26;83.42;98423.72;5051683;28;20468;-75
2023/08/11 03:22:40;;;;;;;8.03;7.43;;;;;;;14.23;83.66;98425.00;5051425;28;20495;-76
2023/08/11 03:25:10;;;;;;;7.77;7.17;;;;;;;14.20;83.78;98424.59;5050821;28;20550;-75
2023/08/11 03:27:39;;;;;;;7.83;7.10;;;;;;;14.15;84.19;98427.13;5051536;28;20493;-76
2023/08/11 03:30:08;;;;;;;8.37;7.70;;;;;;;14.09;84.55;98424.19;5051206;28;20524;-75
2023/08/11 03:32:36;;;;;;;8.50;7.80;;;;;;;13.98;84.84;98437.63;5051096;28;20457;-76
2023/08/11 03:35:03;;;;;;;8.17;7.57;;;;;;;13.95;85.16;98433.47;5050725;28;20493;-75
2023/08/11 03:37:30;;;;;;;8.67;8.07;;;;;;;13.95;85.09;98438.09;5050909;28;20524;-76
2023/08/11 03:39:56;;;;;;;8.03;7.33;;;;;;;13.87;85.29;98430.97;5050862;28;20501;-75
2023/08/11 03:42:24;;;;;;;8.53;7.73;;;;;;;13.91;85.38;98426.78;5051102;28;20530;-75
2023/08/11 03:44:52;;;;;;;8.40;7.70;;;;;;;13.91;85.17;98432.22;5050822;28;20534;-76
2023/08/11 03:47:19;;;;;;;7.60;7.00;;;;;;;13.84;85.50;98428.69;5050808;28;20495;-76
2023/08/11 03:49:46;;;;;;;8.40;7.77;;;;;;;13.78;85.55;98438.53;5050910;28;20454;-75
2023/08/11 03:52:13;;;;;;;8.20;7.40;;;;;;;13.82;85.41;98440.81;5050681;28;20692;-75
2023/08/11 03:54:39;;;;;;;8.33;7.63;;;;;;;13.83;85.33;98437.91;5050934;28;20446;-75
2023/08/11 03:57:06;;;;;;;9.13;8.20;;;;;;;13.82;85.50;98444.38;5050702;28;20505;-75
2023/08/11 03:59:34;;;;;;;8.17;7.47;;;;;;;13.87;85.33;98439.16;5050122;28;20632;-76
2023/08/11 04:02:01;;;;;;;8.37;7.67;;;;;;;13.91;85.19;98437.69;5050673;28;20927;-76
2023/08/11 04:04:28;;;;;;;7.53;6.90;;;;;;;13.98;84.91;98429.47;5050743;28;20455;-76
2023/08/11 04:06:55;;;;;;;7.90;7.27;;;;;;;14.09;84.43;98426.91;5050285;28;20991;-76
2023/08/11 04:09:21;;;;;;;7.77;7.17;;;;;;;14.04;84.32;98434.06;5050371;28;20453;-75
2023/08/11 04:11:49;;;;;;;7.73;7.03;;;;;;;13.94;84.79;98437.25;5050351;28;21041;-76
2023/08/11 04:14:16;;;;;;;7.30;6.70;;;;;;;13.94;84.72;98442.69;5049946;28;20464;-76
2023/08/11 04:16:44;;;;;;;7.50;6.87;;;;;;;13.97;84.51;98447.69;5050185;28;20513;-75
2023/08/11 04:19:11;;;;;;;7.57;7.00;;;;;;;13.96;84.74;98443.31;5050168;28;20802;-75
2023/08/11 04:21:39;;;;;;;8.07;7.47;;;;;;;13.97;84.59;98442.22;5050504;28;20514;-75
2023/08/11 04:24:06;;;;;;;7.77;6.73;;;;;;;13.94;84.42;98447.28;5050265;28;20454;-76
2023/08/11 04:26:34;;;;;;;8.37;7.67;;;;;;;13.95;84.70;98440.81;5049993;28;21001;-75
2023/08/11 04:29:01;;;;;;;8.63;7.83;;;;;;;13.87;84.91;98436.44;5050286;28;20543;-75
2023/08/11 04:31:29;;;;;;;8.43;7.60;;;;;;;13.87;84.83;98433.69;5049654;28;20545;-75
2023/08/11 04:33:57;;;;;;;7.67;7.07;;;;;;;13.93;84.60;98435.56;5049420;28;20479;-75
2023/08/11 04:36:24;;;;;;;7.20;6.60;;;;;;;13.91;84.46;98429.50;5050156;28;20735;-76
2023/08/11 04:38:50;;;;;;;6.47;5.97;;;;;;;13.82;84.51;98432.66;5050057;28;20447;-75
2023/08/11 04:41:17;;;;;;;6.13;5.73;;;;;;;13.82;84.70;98447.09;5049826;28;20462;-76
2023/08/11 04:43:44;;;;;;;6.67;5.97;;;;;;;13.83;84.59;98435.19;5049486;28;20454;-75
2023/08/11 04:46:11;;;;;;;6.80;6.23;;;;;;;13.78;85.07;98437.69;5049652;28;20474;-76
2023/08/11 04:48:37;;;;;;;6.57;6.07;;;;;;;13.80;84.71;98435.59;5049743;28;20547;-76
2023/08/11 04:51:06;;;;;;;5.67;5.20;;;;;;;13.77;84.81;98433.31;5049663;28;21145;-76
2023/08/11 04:53:33;;;;;;;7.00;6.40;;;;;;;13.72;85.13;98435.81;5049122;28;20452;-76
2023/08/11 04:55:59;;;;;;;7.37;6.80;;;;;;;13.78;84.85;98437.69;5049625;28;20465;-76
2023/08/11 04:58:26;;;;;;;6.87;6.17;;;;;;;13.82;85.12;98432.66;5049586;28;20545;-76
2023/08/11 05:00:53;;;;;;;6.97;6.43;;;;;;;13.62;84.91;98390.03;5049630;28;20558;-76
2023/08/11 05:03:20;;;;;;;8.73;6.23;;;;;;;14.02;84.16;98437.00;5049443;28;20464;-76
2023/08/11 05:05:47;;;;;;;6.47;5.73;;;;;;;14.08;83.83;98447.03;5049327;28;20546;-76
2023/08/11 05:08:15;;;;;;;5.93;5.53;;;;;;;14.13;83.60;98447.22;5049694;28;20980;-76
2023/08/11 05:10:42;;;;;;;6.63;6.13;;;;;;;14.12;83.72;98439.28;5049564;28;20441;-76
2023/08/11 05:13:09;;;;;;;6.57;5.93;;;;;;;14.16;83.88;98434.22;5049277;28;20537;-75
2023/08/11 05:15:37;;;;;;;6.03;5.50;;;;;;;14.23;83.55;98448.66;5049242;28;20563;-76
2023/08/11 05:18:05;;;;;;;6.00;5.53;;;;;;;14.26;83.46;98442.78;5049356;28;20999;-76
2023/08/11 05:20:32;;;;;;;7.40;6.70;;;;;;;14.28;83.65;98446.97;5049340;28;20443;-76
2023/08/11 05:22:59;;;;;;;7.43;6.73;;;;;;;14.40;82.90;98445.22;5049126;28;20951;-76
2023/08/11 05:25:27;;;;;;;7.33;6.70;;;;;;;14.50;82.87;98452.97;5048995;28;20471;-76
2023/08/11 05:27:54;;;;;;;7.60;6.80;;;;;;;14.66;82.21;98462.50;5049843;28;20886;-76
2023/08/11 05:30:25;;;;;;;6.63;6.13;;;;;;;14.64;82.32;98470.91;5049221;28;20451;-76
2023/08/11 05:32:52;;;;;;;6.97;6.37;;;;;;;14.83;81.71;98473.75;5050619;28;20447;-75
2023/08/11 05:35:19;;;;;;;7.47;6.73;;;;;;;14.82;81.81;98466.63;5048904;28;20481;-75
2023/08/11 05:37:47;;;;;;;7.73;7.10;;;;;;;14.92;81.38;98467.00;5049657;28;20466;-76
2023/08/11 05:40:14;;;;;;;6.50;6.00;;;;;;;14.97;81.04;98448.91;5049445;28;20880;-76
2023/08/11 05:42:42;;;;;;;6.57;6.07;;;;;;;15.12;80.52;98471.25;5050046;28;20458;-76
2023/08/11 05:45:27;;;;;;;6.53;5.93;;;;;;;15.30;80.06;98475.91;5049629;28;20560;-77
2023/08/11 05:47:54;;;;;;;6.40;5.80;;;;;;;15.44;79.35;98471.22;5049403;28;20985;-77
2023/08/11 05:50:21;;;;;;;6.90;6.30;;;;;;;15.52;79.22;98461.91;5049340;28;20862;-76
2023/08/11 05:52:48;;;;;;;7.17;6.50;;;;;;;15.54;79.13;98471.56;5049400;28;20447;-77
2023/08/11 05:55:15;;;;;;;7.10;6.40;;;;;;;15.70;78.93;98472.91;5048947;28;20471;-77
2023/08/11 05:57:43;;;;;;;6.40;5.90;;;;;;;15.78;78.93;98475.34;5049429;28;20447;-76
2023/08/11 06:00:11;;;;;;;6.97;6.47;;;;;;;15.89;77.71;98474.63;5049145;28;20500;-77
2023/08/11 06:02:38;;;;;;;7.10;6.43;;;;;;;15.89;78.32;98469.16;5049023;28;20486;-77
2023/08/11 06:05:05;;;;;;;7.23;6.53;;;;;;;16.05;78.00;98476.75;5051040;28;20532;-77
2023/08/11 06:07:32;;;;;;;6.63;6.00;;;;;;;16.16;77.07;98471.59;5052770;28;21031;-76
2023/08/11 06:09:59;;;;;;;6.70;6.10;;;;;;;16.15;76.68;98478.94;5054250;28;20442;-77
2023/08/11 06:12:25;;;;;;;6.80;6.20;;;;;;;16.32;76.53;98481.91;5052842;28;20534;-76
2023/08/11 06:14:53;;;;;;;7.07;6.40;;;;;;;16.29;76.19;98479.63;5052306;28;20513;-76
2023/08/11 06:17:20;;;;;;;7.00;5.93;;;;;;;16.51;75.94;98474.53;5053376;28;20453;-76
2023/08/11 06:19:47;;;;;;;6.40;5.90;;;;;;;16.74;75.53;98472.78;5052900;28;20545;-76
2023/08/11 06:22:14;;;;;;;6.63;6.00;;;;;;;16.62;75.20;98471.84;5053044;28;20477;-77
2023/08/11 06:24:41;;;;;;;7.93;6.57;;;;;;;16.71;75.66;98473.25;5052126;28;20542;-77
2023/08/11 06:27:09;;;;;;;7.00;6.37;;;;;;;16.91;74.80;98477.59;5052210;28;20846;-77
2023/08/11 06:29:36;;;;;;;7.30;6.60;;;;;;;16.94;74.22;98483.44;5052766;28;20574;-77
2023/08/11 06:32:04;;;;;;;6.70;6.00;;;;;;;17.07;73.44;98482.41;5051996;28;20998;-77
2023/08/11 06:34:31;;;;;;;7.60;6.33;;;;;;;17.08;73.31;98478.63;5051812;28;20443;-77
2023/08/11 06:36:58;;;;;;;6.63;5.83;;;;;;;17.27;73.45;98473.91;5052435;28;20447;-77
2023/08/11 06:39:25;;;;;;;6.83;6.23;;;;;;;17.58;72.23;98470.00;5052110;28;20450;-76
2023/08/11 06:41:51;;;;;;;6.93;6.33;;;;;;;17.57;70.85;98432.75;5052476;28;20439;-77
2023/08/11 06:44:18;;;;;;;5.87;5.47;;;;;;;18.09;70.43;98475.66;5051931;28;20451;-77
2023/08/11 06:46:45;;;;;;;6.37;5.43;;;;;;;18.27;70.00;98476.56;5052036;28;21017;-77
2023/08/11 06:49:13;;;;;;;6.40;5.73;;;;;;;18.78;67.92;98473.88;5051993;28;20574;-77
2023/08/11 06:51:40;;;;;;;6.43;5.70;;;;;;;19.24;66.02;98471.97;5052199;28;20451;-77
2023/08/11 06:54:07;;;;;;;5.93;5.50;;;;;;;19.60;64.74;98470.69;5051614;28;20458;-77
2023/08/11 06:56:33;;;;;;;6.73;6.13;;;;;;;20.26;62.65;98473.59;5051727;28;20983;-77
2023/08/11 06:59:00;;;;;;;6.37;5.77;;;;;;;20.41;61.12;98474.69;5051710;28;20951;-77
2023/08/11 07:01:27;;;;;;;5.83;5.43;;;;;;;20.42;61.63;98472.78;5051202;28;20528;-77
2023/08/11 07:03:54;;;;;;;5.80;5.30;;;;;;;20.83;59.96;98471.34;5051342;28;20940;-77
2023/08/11 07:06:22;;;;;;;5.90;5.40;;;;;;;20.80;60.07;98464.41;5051484;28;20909;-77
2023/08/11 07:08:49;;;;;;;7.60;5.50;;;;;;;21.12;59.98;98471.91;5051466;28;20615;-77
2023/08/11 07:11:16;;;;;;;4.67;4.37;;;;;;;21.62;58.89;98465.25;5051685;28;20442;-75
2023/08/11 07:13:42;;;;;;;5.63;5.23;;;;;;;22.27;55.89;98466.84;5051196;28;20463;-75
2023/08/11 07:16:09;;;;;;;5.20;4.80;;;;;;;22.76;54.89;98470.94;5050843;28;20554;-74
2023/08/11 07:18:36;;;;;;;5.40;4.53;;;;;;;22.63;55.74;98476.97;5051543;28;20447;-75
2023/08/11 07:21:03;;;;;;;5.77;4.70;;;;;;;23.03;53.76;98476.31;5051217;28;20885;-76
2023/08/11 07:23:31;;;;;;;5.50;4.93;;;;;;;22.84;53.36;98482.59;5051210;28;20547;-76
2023/08/11 07:25:58;;;;;;;5.20;4.80;;;;;;;22.82;53.50;98482.03;5051416;28;20546;-76
2023/08/11 07:28:25;;;;;;;5.37;4.50;;;;;;;23.15;52.92;98478.81;5051644;28;20481;-76
2023/08/11 07:30:52;;;;;;;4.70;4.27;;;;;;;23.20;52.99;98486.28;5051413;28;20827;-76
2023/08/11 07:33:18;;;;;;;4.73;4.30;;;;;;;23.77;51.28;98475.03;5051033;28;20436;-76
2023/08/11 07:35:45;;;;;;;5.47;4.97;;;;;;;24.06;50.33;98489.09;5051115;28;20471;-77
2023/08/11 07:38:12;;;;;;;4.63;4.17;;;;;;;24.26;49.84;98491.06;5051456;28;20542;-76
2023/08/11 07:40:40;;;;;;;5.17;4.70;;;;;;;24.08;50.36;98486.91;5050979;28;20536;-76
2023/08/11 07:43:07;;;;;;;5.60;4.10;;;;;;;23.81;50.69;98484.44;5051007;28;20458;-76
2023/08/11 07:45:34;;;;;;;4.10;3.80;;;;;;;24.04;51.49;98491.34;5050378;28;20554;-76
2023/08/11 07:48:01;;;;;;;5.13;4.33;;;;;;;24.32;50.02;98498.25;5050711;28;20938;-76
2023/08/11 07:50:27;;;;;;;5.40;4.40;;;;;;;24.59;48.11;98495.13;5051122;28;20532;-76
2023/08/11 07:52:54;;;;;;;4.30;3.90;;;;;;;24.41;49.35;98493.78;5051195;28;20459;-76
2023/08/11 07:55:21;;;;;;;4.53;4.13;;;;;;;25.24;47.66;98494.03;5050149;28;20498;-76
2023/08/11 07:57:50;;;;;;;5.20;4.80;;;;;;;25.24;46.78;98495.97;5050834;28;20446;-76
2023/08/11 08:00:19;;;;;;;5.33;4.20;;;;;;;25.07;47.59;98496.31;5050481;28;20487;-76
2023/08/11 08:02:46;;;;;;;4.50;4.10;;;;;;;25.58;46.50;98496.00;5050693;28;20447;-76
2023/08/11 08:05:13;;;;;;;4.73;4.43;;;;;;;26.21;45.34;98499.66;5050445;28;20540;-76
2023/08/11 08:07:40;;;;;;;4.23;3.83;;;;;;;26.10;46.03;98500.88;5050875;28;20446;-76
2023/08/11 08:10:08;;;;;;;3.90;3.60;;;;;;;26.70;44.45;98504.97;5050633;28;20492;-76
2023/08/11 08:12:36;;;;;;;4.60;4.20;;;;;;;27.04;43.46;98504.03;5050768;28;20537;-76
2023/08/11 08:15:07;;;;;;;4.40;4.03;;;;;;;27.21;42.93;98503.53;5049780;28;20467;-76
2023/08/11 08:17:34;;;;;;;4.27;3.90;;;;;;;27.13;42.70;98506.97;5050625;28;20929;-76
2023/08/11 08:20:04;;;;;;;4.37;4.07;;;;;;;27.43;42.03;98504.59;5050417;28;21011;-76
2023/08/11 08:22:32;;;;;;;4.73;3.90;;;;;;;27.20;42.43;98513.00;5050455;28;20784;-76
2023/08/11 08:24:59;;;;;;;4.07;3.63;;;;;;;27.25;43.09;98505.44;5049992;28;20506;-76
2023/08/11 08:27:26;;;;;;;4.07;3.77;;;;;;;27.85;42.32;98505.66;5049610;28;20535;-76
2023/08/11 08:29:53;;;;;;;4.30;3.83;;;;;;;28.05;40.96;98505.31;5049953;28;20501;-76
2023/08/11 08:32:21;;;;;;;4.00;3.70;;;;;;;28.40;39.51;98509.44;5050175;28;20443;-76
2023/08/11 08:34:49;;;;;;;3.90;3.60;;;;;;;28.64;38.71;98500.06;5049933;28;20986;-77
2023/08/11 08:37:16;;;;;;;4.07;3.67;;;;;;;28.76;39.10;98501.22;5050392;28;20546;-77
2023/08/11 08:39:44;;;;;;;3.57;3.37;;;;;;;28.92;37.97;98500.91;5050024;28;20478;-76
2023/08/11 08:42:12;;;;;;;4.20;3.60;;;;;;;28.54;39.90;98500.28;5049718;28;20807;-76
2023/08/11 08:44:41;;;;;;;5.10;3.40;;;;;;;29.06;38.31;98504.53;5049649;28;20958;-76
2023/08/11 08:47:09;;;;;;;4.30;3.60;;;;;;;29.09;37.85;98503.91;5049995;28;20475;-76
2023/08/11 08:49:37;;;;;;;3.97;3.67;;;;;;;29.15;37.43;98491.50;5049913;28;20549;-76
2023/08/11 08:52:05;;;;;;;3.90;3.63;;;;;;;29.32;37.38;98477.72;5049941;28;20457;-77
2023/08/11 08:54:32;;;;;;;3.53;3.33;;;;;;;28.96;38.13;98499.16;5049837;28;20567;-76
2023/08/11 08:57:01;;;;;;;3.57;3.27;;;;;;;29.29;37.46;98497.03;5049838;28;20857;-77
2023/08/11 08:59:28;;;;;;;3.90;3.60;;;;;;;29.25;37.49;98496.84;5049926;28;20443;-76
2023/08/11 09:01:54;;;;;;;3.63;3.33;;;;;;;29.55;36.58;98494.53;5049796;28;20479;-77
2023/08/11 09:04:22;;;;;;;5.20;3.90;;;;;;;29.73;36.18;98493.53;5049309;28;20589;-77
2023/08/11 09:06:52;;;;;;;5.63;3.07;;;;;;;29.56;37.24;98487.84;5049331;28;20541;-77
2023/08/11 09:09:18;;;;;;;3.60;3.40;;;;;;;29.63;37.20;98479.81;5049688;28;20832;-76
2023/08/11 09:11:45;;;;;;;3.93;3.40;;;;;;;29.65;37.51;98488.69;5049667;28;20563;-76
2023/08/11 09:14:13;;;;;;;3.87;3.57;;;;;;;29.89;36.54;98458.50;5049078;28;20486;-77
2023/08/11 09:16:40;;;;;;;3.90;3.10;;;;;;;30.46;34.57;98483.84;5049490;28;20451;-77
2023/08/11 09:19:10;;;;;;;3.87;3.50;;;;;;;30.67;34.90;98482.16;5049544;28;20521;-76
2023/08/11 09:21:37;;;;;;;4.47;4.07;;;;;;;30.41;34.80;98484.00;5049179;28;20952;-77
2023/08/11 09:24:09;;;;;;;3.83;3.53;;;;;;;30.26;34.47;98476.84;5049090;28;20458;-77
2023/08/11 09:26:35;;;;;;;3.60;3.40;;;;;;;30.51;35.10;98477.31;5049182;28;20443;-77
2023/08/11 09:29:03;;;;;;;4.10;3.40;;;;;;;31.55;33.56;98470.84;5049331;28;21151;-77
2023/08/11 09:31:30;;;;;;;3.90;3.50;;;;;;;31.29;33.58;98476.44;5049132;28;20443;-76
2023/08/11 09:33:57;;;;;;;4.13;3.73;;;;;;;31.31;32.92;98478.91;5048704;28;20434;-77
2023/08/11 09:36:24;;;;;;;4.20;3.90;;;;;;;31.56;32.70;98475.28;5049370;28;20439;-77
2023/08/11 09:38:51;;;;;;;6.63;4.33;;;;;;;31.86;31.33;98467.88;5050754;28;20493;-77
2023/08/11 09:41:19;;;;;;;3.47;3.27;;;;;;;31.91;31.83;98466.91;5053543;28;20455;-77
2023/08/11 09:43:47;;;;;;;4.00;3.80;;;;;;;32.42;31.13;98462.38;5053236;28;20525;-76
2023/08/11 09:46:14;;;;;;;3.83;3.60;;;;;;;32.24;31.77;98467.19;5053490;28;20475;-76
2023/08/11 09:48:41;;;;;;;3.80;3.50;;;;;;;32.21;31.40;98471.47;5053068;28;20439;-76
2023/08/11 09:51:10;;;;;;;3.77;3.13;;;;;;;32.70;30.40;98466.38;5053521;28;20458;-77
2023/08/11 09:53:38;;;;;;;4.00;3.70;;;;;;;33.12;29.84;98472.13;5053156;28;20476;-77
2023/08/11 09:56:06;;;;;;;3.60;3.40;;;;;;;32.36;30.73;98470.13;5052925;28;20544;-76
2023/08/11 09:58:36;;;;;;;3.63;3.40;;;;;;;31.72;30.87;98458.84;5052814;28;20435;-76
2023/08/11 10:01:04;;;;;;;3.63;3.33;;;;;;;32.03;30.65;98467.06;5053206;28;20939;-76
2023/08/11 10:03:33;;;;;;;3.40;3.20;;;;;;;32.30;30.84;98468.66;5052251;28;20535;-76
2023/08/11 10:06:02;;;;;;;4.10;3.80;;;;;;;32.64;30.17;98467.72;5052632;28;20877;-77
2023/08/11 10:08:29;;;;;;;3.47;3.27;;;;;;;32.13;30.77;98472.31;5052812;28;20788;-77
2023/08/11 10:10:56;;;;;;;3.97;3.67;;;;;;;32.77;29.91;98468.69;5052978;28;20602;-77
2023/08/11 10:13:23;;;;;;;2.80;2.60;;;;;;;33.56;27.98;98467.84;5052493;28;20549;-75
2023/08/11 10:15:52;;;;;;;3.60;3.30;;;;;;;34.03;27.82;98466.47;5052425;28;20533;-75
2023/08/11 10:18:19;;;;;;;3.90;3.60;;;;;;;33.61;27.23;98476.06;5052347;28;20836;-75
2023/08/11 10:20:49;;;;;;;3.50;3.20;;;;;;;32.81;29.28;98464.06;5052829;28;20495;-75
2023/08/11 10:23:17;;;;;;;3.57;3.27;;;;;;;33.25;28.03;98469.03;5052842;28;20461;-75
2023/08/11 10:25:44;;;;;;;3.50;3.30;;;;;;;33.79;28.54;98466.34;5052300;28;20517;-75
2023/08/11 10:28:12;;;;;;;4.17;3.77;;;;;;;33.75;27.78;98470.19;5052536;28;20537;-75
2023/08/11 10:30:40;;;;;;;4.57;4.17;;;;;;;33.34;28.16;98467.03;5052350;28;20489;-75
2023/08/11 10:33:09;;;;;;;3.40;3.20;;;;;;;33.26;28.40;98470.69;5052198;28;20478;-75
2023/08/11 10:35:48;;;;;;;3.33;3.13;;;;;;;33.88;26.85;98481.16;5052099;28;21005;-75
2023/08/11 10:38:23;;;;;;;3.90;3.60;;;;;;;32.26;29.69;98478.88;5052575;28;20443;-75
2023/08/11 10:40:50;;;;;;;4.90;3.83;;;;;;;32.45;28.97;98470.94;5052351;28;20570;-75
2023/08/11 10:43:18;;;;;;;3.83;3.53;;;;;;;32.48;29.76;98466.63;5052435;28;20508;-75
2023/08/11 10:45:45;;;;;;;3.70;3.30;;;;;;;33.23;29.14;98471.38;5051762;28;21018;-75
2023/08/11 10:48:14;;;;;;;6.43;3.60;;;;;;;32.58;29.10;98469.06;5052231;28;20451;-75
2023/08/11 10:50:40;;;;;;;3.70;3.47;;;;;;;32.16;29.85;98474.44;5050748;28;21672;-75
2023/08/11 10:53:09;;;;;;;3.80;3.50;;;;;;;32.98;29.01;98459.16;5051619;28;20962;-75
2023/08/11 10:55:36;;;;;;;3.70;3.40;;;;;;;33.52;28.15;98466.88;5051457;28;20517;-75
2023/08/11 10:58:13;;;;;;;3.33;3.13;;;;;;;33.57;28.09;98469.50;5052029;28;20463;-75
2023/08/11 11:00:41;;;;;;;3.73;3.43;;;;;;;34.14;27.54;98469.63;5052019;28;20513;-75
2023/08/11 11:03:09;;;;;;;3.73;3.43;;;;;;;33.98;27.91;98468.66;5051751;28;20963;-75
2023/08/11 11:05:37;;;;;;;3.70;3.40;;;;;;;34.33;27.85;98463.53;5051165;28;21041;-75
2023/08/11 11:08:04;;;;;;;3.40;3.20;;;;;;;35.15;26.37;98467.09;5051919;28;20485;-75
2023/08/11 11:10:31;;;;;;;3.60;3.30;;;;;;;35.92;25.51;98467.06;5051658;28;20577;-75
2023/08/11 11:12:57;;;;;;;3.60;3.30;;;;;;;36.20;24.96;98455.75;5051763;28;20447;-75
2023/08/11 11:15:25;;;;;;;4.90;3.67;;;;;;;36.00;24.92;98461.28;5051349;28;20883;-75
2023/08/11 11:17:52;;;;;;;3.07;2.87;;;;;;;35.98;24.99;98465.63;5051205;28;20533;-75
2023/08/11 11:20:18;;;;;;;3.67;3.30;;;;;;;36.04;25.21;98454.94;5051424;28;20439;-75
2023/08/11 11:22:50;;;;;;;3.80;3.57;;;;;;;34.97;26.89;98455.28;5051574;28;20451;-76
2023/08/11 11:25:18;;;;;;;3.50;3.20;;;;;;;35.82;25.79;98451.50;5051090;28;20473;-75
2023/08/11 11:27:45;;;;;;;3.70;3.40;;;;;;;35.59;24.85;98453.19;5051175;28;20843;-75
2023/08/11 11:30:13;;;;;;;3.33;3.13;;;;;;;35.84;25.46;98453.94;5051167;28;20501;-75
2023/08/11 11:32:40;;;;;;;3.23;3.03;;;;;;;35.72;24.90;98443.53;5050994;28;20466;-75
2023/08/11 11:35:08;;;;;;;3.47;3.27;;;;;;;35.32;24.80;98443.53;5050952;28;20543;-75